sensor_id;sensor_type;location;lat;lon;timestamp;P1;durP1;ratioP1;P2;durP2;ratioP2
30874;SDS011;17581;43.222;27.924;2023-03-01T00:01:03;7.95;;;5.75;;
30874;SDS011;17581;43.222;27.924;2023-03-01T00:03:33;10.70;;;6.18;;
30874;SDS011;17581;43.222;27.924;2023-03-01T00:05:59;8.85;;;6.15;;
30874;SDS011;17581;43.222;27.924;2023-03-01T00:08:26;10.88;;;6.28;;
30874;SDS011;17581;43.222;27.924;2023-03-01T00:13:36;10.35;;;7.05;;
30874;SDS011;17581;43.222;27.924;2023-03-01T00:16:05;8.80;;;6.07;;
30874;SDS011;17581;43.222;27.924;2023-03-01T00:18:32;10.63;;;7.20;;
30874;SDS011;17581;43.222;27.924;2023-03-01T00:20:58;11.38;;;7.38;;
30874;SDS011;17581;43.222;27.924;2023-03-01T00:23:24;11.23;;;7.20;;
30874;SDS011;17581;43.222;27.924;2023-03-01T00:25:49;11.68;;;6.90;;
30874;SDS011;17581;43.222;27.924;2023-03-01T00:28:15;11.20;;;7.47;;
30874;SDS011;17581;43.222;27.924;2023-03-01T00:30:41;18.45;;;8.73;;
30874;SDS011;17581;43.222;27.924;2023-03-01T00:33:07;13.48;;;8.48;;
30874;SDS011;17581;43.222;27.924;2023-03-01T00:35:33;13.10;;;8.95;;
30874;SDS011;17581;43.222;27.924;2023-03-01T00:37:59;12.93;;;8.60;;
30874;SDS011;17581;43.222;27.924;2023-03-01T00:40:25;11.35;;;7.25;;
30874;SDS011;17581;43.222;27.924;2023-03-01T00:42:54;16.02;;;9.23;;
30874;SDS011;17581;43.222;27.924;2023-03-01T00:45:20;12.07;;;8.32;;
30874;SDS011;17581;43.222;27.924;2023-03-01T00:47:45;11.90;;;7.55;;
30874;SDS011;17581;43.222;27.924;2023-03-01T00:50:11;15.73;;;7.85;;
30874;SDS011;17581;43.222;27.924;2023-03-01T00:52:37;17.70;;;6.90;;
30874;SDS011;17581;43.222;27.924;2023-03-01T00:55:03;11.20;;;6.20;;
30874;SDS011;17581;43.222;27.924;2023-03-01T00:57:29;10.88;;;6.38;;
30874;SDS011;17581;43.222;27.924;2023-03-01T00:59:55;12.18;;;6.95;;
30874;SDS011;17581;43.222;27.924;2023-03-01T01:02:20;11.90;;;6.90;;
30874;SDS011;17581;43.222;27.924;2023-03-01T01:04:46;10.77;;;6.63;;
30874;SDS011;17581;43.222;27.924;2023-03-01T01:07:12;16.50;;;7.70;;
30874;SDS011;17581;43.222;27.924;2023-03-01T01:09:38;11.07;;;6.78;;
30874;SDS011;17581;43.222;27.924;2023-03-01T01:12:03;13.73;;;7.40;;
30874;SDS011;17581;43.222;27.924;2023-03-01T01:14:29;17.23;;;7.20;;
30874;SDS011;17581;43.222;27.924;2023-03-01T01:16:55;19.73;;;8.18;;
30874;SDS011;17581;43.222;27.924;2023-03-01T01:19:20;14.80;;;8.25;;
30874;SDS011;17581;43.222;27.924;2023-03-01T01:21:46;14.10;;;8.20;;
30874;SDS011;17581;43.222;27.924;2023-03-01T01:24:13;16.70;;;9.45;;
30874;SDS011;17581;43.222;27.924;2023-03-01T01:26:38;15.02;;;9.43;;
30874;SDS011;17581;43.222;27.924;2023-03-01T01:29:04;17.05;;;9.23;;
30874;SDS011;17581;43.222;27.924;2023-03-01T01:31:30;19.55;;;10.77;;
30874;SDS011;17581;43.222;27.924;2023-03-01T01:33:57;17.38;;;8.82;;
30874;SDS011;17581;43.222;27.924;2023-03-01T01:36:23;16.08;;;10.25;;
30874;SDS011;17581;43.222;27.924;2023-03-01T01:38:50;18.08;;;9.18;;
30874;SDS011;17581;43.222;27.924;2023-03-01T01:41:16;15.43;;;9.82;;
30874;SDS011;17581;43.222;27.924;2023-03-01T01:43:43;20.75;;;11.40;;
30874;SDS011;17581;43.222;27.924;2023-03-01T01:46:16;19.23;;;10.48;;
30874;SDS011;17581;43.222;27.924;2023-03-01T01:49:03;20.25;;;10.75;;
30874;SDS011;17581;43.222;27.924;2023-03-01T01:51:35;17.42;;;11.50;;
30874;SDS011;17581;43.222;27.924;2023-03-01T01:54:10;18.63;;;13.00;;
30874;SDS011;17581;43.222;27.924;2023-03-01T01:56:40;21.27;;;12.65;;
30874;SDS011;17581;43.222;27.924;2023-03-01T01:59:09;21.00;;;12.57;;
30874;SDS011;17581;43.222;27.924;2023-03-01T02:01:36;23.05;;;12.52;;
30874;SDS011;17581;43.222;27.924;2023-03-01T02:04:01;22.60;;;11.68;;
30874;SDS011;17581;43.222;27.924;2023-03-01T02:06:29;27.02;;;12.98;;
30874;SDS011;17581;43.222;27.924;2023-03-01T02:08:59;20.80;;;12.88;;
30874;SDS011;17581;43.222;27.924;2023-03-01T02:11:30;20.58;;;13.32;;
30874;SDS011;17581;43.222;27.924;2023-03-01T02:13:57;27.23;;;13.27;;
30874;SDS011;17581;43.222;27.924;2023-03-01T02:16:23;19.23;;;12.25;;
30874;SDS011;17581;43.222;27.924;2023-03-01T02:18:50;22.85;;;14.02;;
30874;SDS011;17581;43.222;27.924;2023-03-01T02:21:20;19.92;;;12.93;;
30874;SDS011;17581;43.222;27.924;2023-03-01T02:24:01;19.65;;;13.57;;
30874;SDS011;17581;43.222;27.924;2023-03-01T02:26:56;21.38;;;12.80;;
30874;SDS011;17581;43.222;27.924;2023-03-01T02:29:23;22.77;;;13.30;;
30874;SDS011;17581;43.222;27.924;2023-03-01T02:31:49;23.40;;;14.00;;
30874;SDS011;17581;43.222;27.924;2023-03-01T02:34:21;19.90;;;12.65;;
30874;SDS011;17581;43.222;27.924;2023-03-01T02:37:05;18.98;;;11.02;;
30874;SDS011;17581;43.222;27.924;2023-03-01T02:39:42;22.85;;;14.35;;
30874;SDS011;17581;43.222;27.924;2023-03-01T02:42:13;22.20;;;14.73;;
30874;SDS011;17581;43.222;27.924;2023-03-01T02:44:42;19.92;;;13.18;;
30874;SDS011;17581;43.222;27.924;2023-03-01T02:47:07;21.83;;;13.75;;
30874;SDS011;17581;43.222;27.924;2023-03-01T02:49:34;24.85;;;13.63;;
30874;SDS011;17581;43.222;27.924;2023-03-01T02:55:09;20.75;;;14.35;;
30874;SDS011;17581;43.222;27.924;2023-03-01T02:57:38;27.17;;;15.43;;
30874;SDS011;17581;43.222;27.924;2023-03-01T03:00:28;22.55;;;15.32;;
30874;SDS011;17581;43.222;27.924;2023-03-01T03:02:58;25.38;;;16.17;;
30874;SDS011;17581;43.222;27.924;2023-03-01T03:05:25;21.15;;;15.15;;
30874;SDS011;17581;43.222;27.924;2023-03-01T03:07:53;27.73;;;16.17;;
30874;SDS011;17581;43.222;27.924;2023-03-01T03:10:23;24.55;;;16.88;;
30874;SDS011;17581;43.222;27.924;2023-03-01T03:12:56;23.63;;;15.73;;
30874;SDS011;17581;43.222;27.924;2023-03-01T03:15:23;26.92;;;17.02;;
30874;SDS011;17581;43.222;27.924;2023-03-01T03:17:50;26.48;;;16.40;;
30874;SDS011;17581;43.222;27.924;2023-03-01T03:20:18;26.63;;;17.63;;
30874;SDS011;17581;43.222;27.924;2023-03-01T03:22:46;31.48;;;18.15;;
30874;SDS011;17581;43.222;27.924;2023-03-01T03:25:13;31.45;;;17.30;;
30874;SDS011;17581;43.222;27.924;2023-03-01T03:27:39;30.85;;;17.52;;
30874;SDS011;17581;43.222;27.924;2023-03-01T03:30:10;27.30;;;18.92;;
30874;SDS011;17581;43.222;27.924;2023-03-01T03:32:42;28.88;;;19.27;;
30874;SDS011;17581;43.222;27.924;2023-03-01T03:35:18;35.10;;;20.25;;
30874;SDS011;17581;43.222;27.924;2023-03-01T03:37:45;30.42;;;19.42;;
30874;SDS011;17581;43.222;27.924;2023-03-01T03:40:27;36.85;;;19.80;;
30874;SDS011;17581;43.222;27.924;2023-03-01T03:42:54;36.10;;;20.05;;
30874;SDS011;17581;43.222;27.924;2023-03-01T03:45:20;34.50;;;20.60;;
30874;SDS011;17581;43.222;27.924;2023-03-01T03:47:47;32.88;;;20.38;;
30874;SDS011;17581;43.222;27.924;2023-03-01T03:50:13;32.22;;;20.08;;
30874;SDS011;17581;43.222;27.924;2023-03-01T03:52:40;45.75;;;22.85;;
30874;SDS011;17581;43.222;27.924;2023-03-01T03:55:06;35.03;;;22.30;;
30874;SDS011;17581;43.222;27.924;2023-03-01T03:57:34;40.85;;;23.98;;
30874;SDS011;17581;43.222;27.924;2023-03-01T04:00:00;40.97;;;22.55;;
30874;SDS011;17581;43.222;27.924;2023-03-01T04:02:25;34.67;;;21.33;;
30874;SDS011;17581;43.222;27.924;2023-03-01T04:04:51;38.30;;;20.67;;
30874;SDS011;17581;43.222;27.924;2023-03-01T04:07:16;32.90;;;21.45;;
30874;SDS011;17581;43.222;27.924;2023-03-01T04:09:42;34.88;;;21.40;;
30874;SDS011;17581;43.222;27.924;2023-03-01T04:12:08;35.28;;;22.08;;
30874;SDS011;17581;43.222;27.924;2023-03-01T04:14:34;36.47;;;22.65;;
30874;SDS011;17581;43.222;27.924;2023-03-01T04:16:59;43.25;;;23.15;;
30874;SDS011;17581;43.222;27.924;2023-03-01T04:19:25;37.60;;;21.75;;
30874;SDS011;17581;43.222;27.924;2023-03-01T04:21:52;42.08;;;21.85;;
30874;SDS011;17581;43.222;27.924;2023-03-01T04:24:18;37.75;;;21.50;;
30874;SDS011;17581;43.222;27.924;2023-03-01T04:26:44;39.90;;;21.60;;
30874;SDS011;17581;43.222;27.924;2023-03-01T04:29:09;36.83;;;23.05;;
30874;SDS011;17581;43.222;27.924;2023-03-01T04:31:34;32.22;;;19.98;;
30874;SDS011;17581;43.222;27.924;2023-03-01T04:34:00;44.38;;;22.08;;
30874;SDS011;17581;43.222;27.924;2023-03-01T04:36:26;34.80;;;20.67;;
30874;SDS011;17581;43.222;27.924;2023-03-01T04:38:53;34.35;;;20.23;;
30874;SDS011;17581;43.222;27.924;2023-03-01T04:41:21;42.40;;;22.63;;
30874;SDS011;17581;43.222;27.924;2023-03-01T04:43:48;31.67;;;20.77;;
30874;SDS011;17581;43.222;27.924;2023-03-01T04:46:15;38.92;;;22.27;;
30874;SDS011;17581;43.222;27.924;2023-03-01T04:48:44;36.60;;;21.25;;
30874;SDS011;17581;43.222;27.924;2023-03-01T04:51:12;30.83;;;21.02;;
30874;SDS011;17581;43.222;27.924;2023-03-01T04:53:41;45.63;;;21.42;;
30874;SDS011;17581;43.222;27.924;2023-03-01T04:56:07;35.05;;;21.75;;
30874;SDS011;17581;43.222;27.924;2023-03-01T04:58:32;31.25;;;19.33;;
30874;SDS011;17581;43.222;27.924;2023-03-01T05:00:58;39.40;;;20.15;;
30874;SDS011;17581;43.222;27.924;2023-03-01T05:03:23;42.15;;;24.23;;
30874;SDS011;17581;43.222;27.924;2023-03-01T05:05:50;31.95;;;19.90;;
30874;SDS011;17581;43.222;27.924;2023-03-01T05:08:17;31.45;;;20.48;;
30874;SDS011;17581;43.222;27.924;2023-03-01T05:10:48;33.70;;;19.83;;
30874;SDS011;17581;43.222;27.924;2023-03-01T05:13:18;35.20;;;20.88;;
30874;SDS011;17581;43.222;27.924;2023-03-01T05:15:54;48.45;;;23.75;;
30874;SDS011;17581;43.222;27.924;2023-03-01T05:18:24;36.00;;;21.05;;
30874;SDS011;17581;43.222;27.924;2023-03-01T05:20:51;35.97;;;20.15;;
30874;SDS011;17581;43.222;27.924;2023-03-01T05:23:17;35.25;;;20.23;;
30874;SDS011;17581;43.222;27.924;2023-03-01T05:25:43;34.65;;;20.45;;
30874;SDS011;17581;43.222;27.924;2023-03-01T05:28:12;32.58;;;20.80;;
30874;SDS011;17581;43.222;27.924;2023-03-01T05:30:39;42.30;;;21.45;;
30874;SDS011;17581;43.222;27.924;2023-03-01T05:33:04;45.80;;;26.27;;
30874;SDS011;17581;43.222;27.924;2023-03-01T05:35:35;41.03;;;22.15;;
30874;SDS011;17581;43.222;27.924;2023-03-01T05:38:01;36.17;;;21.25;;
30874;SDS011;17581;43.222;27.924;2023-03-01T05:40:27;34.25;;;19.73;;
30874;SDS011;17581;43.222;27.924;2023-03-01T05:42:54;40.17;;;22.08;;
30874;SDS011;17581;43.222;27.924;2023-03-01T05:45:21;31.35;;;19.48;;
30874;SDS011;17581;43.222;27.924;2023-03-01T05:47:48;33.65;;;20.50;;
30874;SDS011;17581;43.222;27.924;2023-03-01T05:50:19;36.58;;;19.55;;
30874;SDS011;17581;43.222;27.924;2023-03-01T05:52:47;29.05;;;19.50;;
30874;SDS011;17581;43.222;27.924;2023-03-01T05:55:17;37.67;;;21.52;;
30874;SDS011;17581;43.222;27.924;2023-03-01T05:57:44;33.95;;;20.67;;
30874;SDS011;17581;43.222;27.924;2023-03-01T06:00:11;36.50;;;24.20;;
30874;SDS011;17581;43.222;27.924;2023-03-01T06:02:37;37.60;;;18.48;;
30874;SDS011;17581;43.222;27.924;2023-03-01T06:05:04;32.13;;;19.58;;
30874;SDS011;17581;43.222;27.924;2023-03-01T06:07:31;33.92;;;18.58;;
30874;SDS011;17581;43.222;27.924;2023-03-01T06:09:57;34.08;;;18.90;;
30874;SDS011;17581;43.222;27.924;2023-03-01T06:12:22;35.47;;;19.75;;
30874;SDS011;17581;43.222;27.924;2023-03-01T06:14:48;34.15;;;19.17;;
30874;SDS011;17581;43.222;27.924;2023-03-01T06:17:13;30.40;;;19.20;;
30874;SDS011;17581;43.222;27.924;2023-03-01T06:19:39;37.05;;;19.92;;
30874;SDS011;17581;43.222;27.924;2023-03-01T06:22:04;31.75;;;21.17;;
30874;SDS011;17581;43.222;27.924;2023-03-01T06:24:30;29.85;;;19.50;;
30874;SDS011;17581;43.222;27.924;2023-03-01T06:26:55;40.35;;;18.48;;
30874;SDS011;17581;43.222;27.924;2023-03-01T06:29:21;29.30;;;16.60;;
30874;SDS011;17581;43.222;27.924;2023-03-01T06:31:47;27.10;;;17.75;;
30874;SDS011;17581;43.222;27.924;2023-03-01T06:34:13;33.90;;;19.42;;
30874;SDS011;17581;43.222;27.924;2023-03-01T06:36:39;32.65;;;18.50;;
30874;SDS011;17581;43.222;27.924;2023-03-01T06:39:05;31.38;;;19.00;;
30874;SDS011;17581;43.222;27.924;2023-03-01T06:41:31;34.95;;;18.90;;
30874;SDS011;17581;43.222;27.924;2023-03-01T06:43:57;28.60;;;18.42;;
30874;SDS011;17581;43.222;27.924;2023-03-01T06:46:23;27.77;;;18.00;;
30874;SDS011;17581;43.222;27.924;2023-03-01T06:48:49;34.05;;;19.73;;
30874;SDS011;17581;43.222;27.924;2023-03-01T06:51:14;38.20;;;19.67;;
30874;SDS011;17581;43.222;27.924;2023-03-01T06:53:40;32.78;;;19.95;;
30874;SDS011;17581;43.222;27.924;2023-03-01T06:56:06;34.00;;;19.00;;
30874;SDS011;17581;43.222;27.924;2023-03-01T06:58:31;27.50;;;18.40;;
30874;SDS011;17581;43.222;27.924;2023-03-01T07:00:57;30.42;;;20.52;;
30874;SDS011;17581;43.222;27.924;2023-03-01T07:03:22;33.95;;;20.73;;
30874;SDS011;17581;43.222;27.924;2023-03-01T07:05:51;36.40;;;22.95;;
30874;SDS011;17581;43.222;27.924;2023-03-01T07:08:17;43.30;;;22.00;;
30874;SDS011;17581;43.222;27.924;2023-03-01T07:10:43;37.47;;;21.98;;
30874;SDS011;17581;43.222;27.924;2023-03-01T07:13:09;39.42;;;21.42;;
30874;SDS011;17581;43.222;27.924;2023-03-01T07:15:34;31.75;;;21.60;;
30874;SDS011;17581;43.222;27.924;2023-03-01T07:18:00;35.67;;;20.85;;
30874;SDS011;17581;43.222;27.924;2023-03-01T07:20:25;33.25;;;20.95;;
30874;SDS011;17581;43.222;27.924;2023-03-01T07:22:51;42.45;;;22.52;;
30874;SDS011;17581;43.222;27.924;2023-03-01T07:25:17;34.90;;;20.20;;
30874;SDS011;17581;43.222;27.924;2023-03-01T07:27:43;36.85;;;20.98;;
30874;SDS011;17581;43.222;27.924;2023-03-01T07:30:08;38.47;;;23.02;;
30874;SDS011;17581;43.222;27.924;2023-03-01T07:32:35;38.85;;;21.45;;
30874;SDS011;17581;43.222;27.924;2023-03-01T07:35:00;41.50;;;23.35;;
30874;SDS011;17581;43.222;27.924;2023-03-01T07:37:26;48.50;;;25.48;;
30874;SDS011;17581;43.222;27.924;2023-03-01T07:39:51;41.40;;;27.23;;
30874;SDS011;17581;43.222;27.924;2023-03-01T07:42:16;42.55;;;23.63;;
30874;SDS011;17581;43.222;27.924;2023-03-01T07:44:42;37.70;;;22.73;;
30874;SDS011;17581;43.222;27.924;2023-03-01T07:47:07;47.22;;;22.85;;
30874;SDS011;17581;43.222;27.924;2023-03-01T07:49:33;42.17;;;24.48;;
30874;SDS011;17581;43.222;27.924;2023-03-01T07:51:59;53.58;;;25.20;;
30874;SDS011;17581;43.222;27.924;2023-03-01T07:54:24;46.63;;;24.40;;
30874;SDS011;17581;43.222;27.924;2023-03-01T07:56:51;57.25;;;26.00;;
30874;SDS011;17581;43.222;27.924;2023-03-01T07:59:16;50.58;;;27.70;;
30874;SDS011;17581;43.222;27.924;2023-03-01T08:01:42;48.92;;;24.08;;
30874;SDS011;17581;43.222;27.924;2023-03-01T08:04:08;64.20;;;35.38;;
30874;SDS011;17581;43.222;27.924;2023-03-01T08:06:34;42.20;;;26.15;;
30874;SDS011;17581;43.222;27.924;2023-03-01T08:09:00;40.50;;;24.40;;
30874;SDS011;17581;43.222;27.924;2023-03-01T08:11:25;46.08;;;21.73;;
30874;SDS011;17581;43.222;27.924;2023-03-01T08:13:53;42.92;;;22.08;;
30874;SDS011;17581;43.222;27.924;2023-03-01T08:16:18;45.33;;;22.75;;
30874;SDS011;17581;43.222;27.924;2023-03-01T08:18:44;33.90;;;22.35;;
30874;SDS011;17581;43.222;27.924;2023-03-01T08:21:14;33.83;;;21.90;;
30874;SDS011;17581;43.222;27.924;2023-03-01T08:23:42;34.40;;;22.25;;
30874;SDS011;17581;43.222;27.924;2023-03-01T08:26:09;40.13;;;20.90;;
30874;SDS011;17581;43.222;27.924;2023-03-01T08:28:37;33.72;;;20.02;;
30874;SDS011;17581;43.222;27.924;2023-03-01T08:31:12;37.58;;;21.63;;
30874;SDS011;17581;43.222;27.924;2023-03-01T08:33:39;38.42;;;20.65;;
30874;SDS011;17581;43.222;27.924;2023-03-01T08:36:05;32.05;;;20.17;;
30874;SDS011;17581;43.222;27.924;2023-03-01T08:38:32;43.50;;;22.65;;
30874;SDS011;17581;43.222;27.924;2023-03-01T08:41:00;34.83;;;21.85;;
30874;SDS011;17581;43.222;27.924;2023-03-01T08:43:27;34.42;;;20.33;;
30874;SDS011;17581;43.222;27.924;2023-03-01T08:45:53;35.22;;;20.67;;
30874;SDS011;17581;43.222;27.924;2023-03-01T08:48:18;38.90;;;21.58;;
30874;SDS011;17581;43.222;27.924;2023-03-01T08:50:44;29.00;;;20.38;;
30874;SDS011;17581;43.222;27.924;2023-03-01T08:53:09;37.25;;;23.17;;
30874;SDS011;17581;43.222;27.924;2023-03-01T08:55:35;35.65;;;23.17;;
30874;SDS011;17581;43.222;27.924;2023-03-01T08:58:00;38.45;;;23.63;;
30874;SDS011;17581;43.222;27.924;2023-03-01T09:00:25;40.53;;;23.15;;
30874;SDS011;17581;43.222;27.924;2023-03-01T09:02:51;36.78;;;22.35;;
30874;SDS011;17581;43.222;27.924;2023-03-01T09:05:16;37.50;;;22.08;;
30874;SDS011;17581;43.222;27.924;2023-03-01T09:07:42;32.47;;;21.38;;
30874;SDS011;17581;43.222;27.924;2023-03-01T09:10:07;35.47;;;24.10;;
30874;SDS011;17581;43.222;27.924;2023-03-01T09:12:34;38.63;;;24.20;;
30874;SDS011;17581;43.222;27.924;2023-03-01T09:14:59;37.10;;;24.67;;
30874;SDS011;17581;43.222;27.924;2023-03-01T09:17:24;39.63;;;22.98;;
30874;SDS011;17581;43.222;27.924;2023-03-01T09:19:50;48.88;;;25.88;;
30874;SDS011;17581;43.222;27.924;2023-03-01T09:22:15;39.40;;;27.58;;
30874;SDS011;17581;43.222;27.924;2023-03-01T09:24:41;38.92;;;24.90;;
30874;SDS011;17581;43.222;27.924;2023-03-01T09:27:06;48.05;;;27.17;;
30874;SDS011;17581;43.222;27.924;2023-03-01T09:29:34;42.05;;;26.02;;
30874;SDS011;17581;43.222;27.924;2023-03-01T09:32:02;42.78;;;26.10;;
30874;SDS011;17581;43.222;27.924;2023-03-01T09:34:28;43.55;;;25.33;;
30874;SDS011;17581;43.222;27.924;2023-03-01T09:36:54;40.92;;;27.60;;
30874;SDS011;17581;43.222;27.924;2023-03-01T09:39:19;45.88;;;27.95;;
30874;SDS011;17581;43.222;27.924;2023-03-01T09:42:04;38.97;;;27.75;;
30874;SDS011;17581;43.222;27.924;2023-03-01T09:47:07;57.65;;;30.95;;
30874;SDS011;17581;43.222;27.924;2023-03-01T09:49:39;47.38;;;30.50;;
30874;SDS011;17581;43.222;27.924;2023-03-01T09:54:55;57.90;;;26.35;;
30874;SDS011;17581;43.222;27.924;2023-03-01T09:57:29;42.35;;;25.52;;
30874;SDS011;17581;43.222;27.924;2023-03-01T10:06:06;46.53;;;24.35;;
30874;SDS011;17581;43.222;27.924;2023-03-01T10:08:43;34.92;;;22.48;;
30874;SDS011;17581;43.222;27.924;2023-03-01T10:16:19;50.55;;;26.42;;
30874;SDS011;17581;43.222;27.924;2023-03-01T10:19:11;41.22;;;23.20;;
30874;SDS011;17581;43.222;27.924;2023-03-01T10:21:43;42.53;;;24.38;;
30874;SDS011;17581;43.222;27.924;2023-03-01T10:24:12;39.25;;;22.33;;
30874;SDS011;17581;43.222;27.924;2023-03-01T10:26:48;32.45;;;19.60;;
30874;SDS011;17581;43.222;27.924;2023-03-01T10:29:15;35.08;;;18.75;;
30874;SDS011;17581;43.222;27.924;2023-03-01T10:31:46;32.72;;;18.10;;
30874;SDS011;17581;43.222;27.924;2023-03-01T10:34:15;35.00;;;18.05;;
30874;SDS011;17581;43.222;27.924;2023-03-01T10:36:43;34.90;;;18.25;;
30874;SDS011;17581;43.222;27.924;2023-03-01T10:39:13;28.90;;;18.55;;
30874;SDS011;17581;43.222;27.924;2023-03-01T10:44:44;28.38;;;17.92;;
30874;SDS011;17581;43.222;27.924;2023-03-01T10:50:02;36.42;;;16.23;;
30874;SDS011;17581;43.222;27.924;2023-03-01T10:52:37;30.58;;;16.50;;
30874;SDS011;17581;43.222;27.924;2023-03-01T10:55:23;25.48;;;17.25;;
30874;SDS011;17581;43.222;27.924;2023-03-01T11:00:46;28.23;;;16.75;;
30874;SDS011;17581;43.222;27.924;2023-03-01T11:05:57;28.58;;;17.08;;
30874;SDS011;17581;43.222;27.924;2023-03-01T11:08:35;24.48;;;15.93;;
30874;SDS011;17581;43.222;27.924;2023-03-01T11:13:34;26.90;;;16.23;;
30874;SDS011;17581;43.222;27.924;2023-03-01T11:16:05;25.25;;;15.82;;
30874;SDS011;17581;43.222;27.924;2023-03-01T11:18:34;29.27;;;15.27;;
30874;SDS011;17581;43.222;27.924;2023-03-01T11:21:00;25.40;;;16.02;;
30874;SDS011;17581;43.222;27.924;2023-03-01T11:23:27;24.42;;;15.45;;
30874;SDS011;17581;43.222;27.924;2023-03-01T11:25:55;26.60;;;18.10;;
30874;SDS011;17581;43.222;27.924;2023-03-01T11:28:23;27.73;;;16.73;;
30874;SDS011;17581;43.222;27.924;2023-03-01T11:30:53;20.02;;;13.05;;
30874;SDS011;17581;43.222;27.924;2023-03-01T11:33:43;18.58;;;13.25;;
30874;SDS011;17581;43.222;27.924;2023-03-01T11:38:56;19.50;;;13.20;;
30874;SDS011;17581;43.222;27.924;2023-03-01T11:41:28;21.10;;;14.30;;
30874;SDS011;17581;43.222;27.924;2023-03-01T11:47:02;27.13;;;14.30;;
30874;SDS011;17581;43.222;27.924;2023-03-01T11:55:12;26.83;;;14.43;;
30874;SDS011;17581;43.222;27.924;2023-03-01T12:09:06;19.75;;;13.13;;
30874;SDS011;17581;43.222;27.924;2023-03-01T12:14:32;23.58;;;12.32;;
30874;SDS011;17581;43.222;27.924;2023-03-01T12:31:00;17.00;;;11.90;;
30874;SDS011;17581;43.222;27.924;2023-03-01T12:36:13;20.10;;;12.93;;
30874;SDS011;17581;43.222;27.924;2023-03-01T12:38:50;29.80;;;13.43;;
30874;SDS011;17581;43.222;27.924;2023-03-01T12:44:20;28.42;;;13.18;;
30874;SDS011;17581;43.222;27.924;2023-03-01T12:49:57;19.67;;;11.98;;
30874;SDS011;17581;43.222;27.924;2023-03-01T12:55:20;22.75;;;10.77;;
30874;SDS011;17581;43.222;27.924;2023-03-01T12:57:50;33.67;;;10.77;;
30874;SDS011;17581;43.222;27.924;2023-03-01T13:00:32;17.77;;;9.75;;
30874;SDS011;17581;43.222;27.924;2023-03-01T13:08:45;16.85;;;10.95;;
30874;SDS011;17581;43.222;27.924;2023-03-01T13:11:22;35.67;;;11.35;;
30874;SDS011;17581;43.222;27.924;2023-03-01T13:13:49;24.50;;;10.32;;
30874;SDS011;17581;43.222;27.924;2023-03-01T13:16:21;15.80;;;9.98;;
30874;SDS011;17581;43.222;27.924;2023-03-01T13:19:14;23.42;;;10.10;;
30874;SDS011;17581;43.222;27.924;2023-03-01T13:21:42;53.33;;;11.27;;
30874;SDS011;17581;43.222;27.924;2023-03-01T13:24:25;24.33;;;10.18;;
30874;SDS011;17581;43.222;27.924;2023-03-01T13:29:51;17.17;;;8.27;;
30874;SDS011;17581;43.222;27.924;2023-03-01T13:32:29;16.60;;;9.85;;
30874;SDS011;17581;43.222;27.924;2023-03-01T13:35:00;32.20;;;11.68;;
30874;SDS011;17581;43.222;27.924;2023-03-01T13:37:32;22.92;;;11.50;;
30874;SDS011;17581;43.222;27.924;2023-03-01T13:40:01;18.45;;;10.30;;
30874;SDS011;17581;43.222;27.924;2023-03-01T13:45:02;31.87;;;11.00;;
30874;SDS011;17581;43.222;27.924;2023-03-01T13:47:30;18.17;;;10.70;;
30874;SDS011;17581;43.222;27.924;2023-03-01T13:50:00;25.17;;;11.10;;
30874;SDS011;17581;43.222;27.924;2023-03-01T13:52:38;20.52;;;10.55;;
30874;SDS011;17581;43.222;27.924;2023-03-01T13:57:40;35.72;;;12.82;;
30874;SDS011;17581;43.222;27.924;2023-03-01T14:03:10;34.83;;;12.25;;
30874;SDS011;17581;43.222;27.924;2023-03-01T14:05:41;23.88;;;12.45;;
30874;SDS011;17581;43.222;27.924;2023-03-01T14:08:23;29.50;;;13.10;;
30874;SDS011;17581;43.222;27.924;2023-03-01T14:10:54;29.45;;;12.73;;
30874;SDS011;17581;43.222;27.924;2023-03-01T14:13:59;35.47;;;16.13;;
30874;SDS011;17581;43.222;27.924;2023-03-01T14:19:35;34.88;;;15.27;;
30874;SDS011;17581;43.222;27.924;2023-03-01T14:22:22;24.92;;;13.13;;
30874;SDS011;17581;43.222;27.924;2023-03-01T14:24:56;30.48;;;17.35;;
30874;SDS011;17581;43.222;27.924;2023-03-01T14:27:30;33.25;;;16.95;;
30874;SDS011;17581;43.222;27.924;2023-03-01T14:30:01;32.13;;;15.70;;
30874;SDS011;17581;43.222;27.924;2023-03-01T14:32:30;25.50;;;14.25;;
30874;SDS011;17581;43.222;27.924;2023-03-01T14:34:58;35.20;;;16.17;;
30874;SDS011;17581;43.222;27.924;2023-03-01T14:37:28;23.02;;;14.18;;
30874;SDS011;17581;43.222;27.924;2023-03-01T14:39:59;24.20;;;14.30;;
30874;SDS011;17581;43.222;27.924;2023-03-01T14:42:28;25.55;;;14.52;;
30874;SDS011;17581;43.222;27.924;2023-03-01T14:44:56;42.85;;;16.13;;
30874;SDS011;17581;43.222;27.924;2023-03-01T14:47:27;31.08;;;16.20;;
30874;SDS011;17581;43.222;27.924;2023-03-01T14:49:59;44.63;;;17.73;;
30874;SDS011;17581;43.222;27.924;2023-03-01T14:52:34;46.10;;;21.27;;
30874;SDS011;17581;43.222;27.924;2023-03-01T14:55:04;33.80;;;15.52;;
30874;SDS011;17581;43.222;27.924;2023-03-01T14:57:32;21.52;;;14.40;;
30874;SDS011;17581;43.222;27.924;2023-03-01T15:00:01;38.88;;;15.98;;
30874;SDS011;17581;43.222;27.924;2023-03-01T15:02:31;21.05;;;13.32;;
30874;SDS011;17581;43.222;27.924;2023-03-01T15:04:58;33.67;;;16.15;;
30874;SDS011;17581;43.222;27.924;2023-03-01T15:07:28;26.67;;;14.82;;
30874;SDS011;17581;43.222;27.924;2023-03-01T15:09:56;43.97;;;19.38;;
30874;SDS011;17581;43.222;27.924;2023-03-01T15:14:57;25.90;;;14.98;;
30874;SDS011;17581;43.222;27.924;2023-03-01T15:17:28;24.92;;;14.82;;
30874;SDS011;17581;43.222;27.924;2023-03-01T15:20:00;30.13;;;13.90;;
30874;SDS011;17581;43.222;27.924;2023-03-01T15:22:29;47.40;;;16.17;;
30874;SDS011;17581;43.222;27.924;2023-03-01T15:24:54;60.42;;;26.58;;
30874;SDS011;17581;43.222;27.924;2023-03-01T15:27:21;25.50;;;15.55;;
30874;SDS011;17581;43.222;27.924;2023-03-01T15:32:26;51.08;;;16.17;;
30874;SDS011;17581;43.222;27.924;2023-03-01T15:34:52;27.55;;;16.75;;
30874;SDS011;17581;43.222;27.924;2023-03-01T15:42:56;28.33;;;14.15;;
30874;SDS011;17581;43.222;27.924;2023-03-01T15:45:24;31.00;;;16.67;;
30874;SDS011;17581;43.222;27.924;2023-03-01T15:47:53;42.85;;;17.58;;
30874;SDS011;17581;43.222;27.924;2023-03-01T15:52:54;31.80;;;18.45;;
30874;SDS011;17581;43.222;27.924;2023-03-01T15:55:26;25.50;;;15.18;;
30874;SDS011;17581;43.222;27.924;2023-03-01T15:58:03;28.27;;;17.27;;
30874;SDS011;17581;43.222;27.924;2023-03-01T16:00:31;31.20;;;18.25;;
30874;SDS011;17581;43.222;27.924;2023-03-01T16:02:57;24.45;;;14.93;;
30874;SDS011;17581;43.222;27.924;2023-03-01T16:05:25;32.67;;;15.93;;
30874;SDS011;17581;43.222;27.924;2023-03-01T16:10:21;39.97;;;15.18;;
30874;SDS011;17581;43.222;27.924;2023-03-01T16:12:48;36.13;;;17.23;;
30874;SDS011;17581;43.222;27.924;2023-03-01T16:15:22;44.80;;;16.70;;
30874;SDS011;17581;43.222;27.924;2023-03-01T16:17:50;40.65;;;14.95;;
30874;SDS011;17581;43.222;27.924;2023-03-01T16:20:16;43.50;;;18.13;;
30874;SDS011;17581;43.222;27.924;2023-03-01T16:22:42;32.88;;;18.95;;